createdAt,value
2023-05-05T00:00:47.426Z,57.22
2023-05-05T00:01:47.476Z,57.05
2023-05-05T00:02:47.563Z,57.34
2023-05-05T00:03:47.678Z,57.02
2023-05-05T00:04:47.566Z,56.69
2023-05-05T00:05:47.657Z,56.82
2023-05-05T00:06:47.660Z,56.60
2023-05-05T00:07:47.693Z,56.43
2023-05-05T00:08:47.717Z,56.59
2023-05-05T00:09:47.703Z,56.08
2023-05-05T00:10:47.760Z,56.24
2023-05-05T00:11:47.790Z,56.51
2023-05-05T00:12:47.831Z,56.84
2023-05-05T00:13:47.833Z,56.49
2023-05-05T00:14:47.899Z,56.87
2023-05-05T00:15:47.913Z,56.26
2023-05-05T00:16:48.003Z,56.29
2023-05-05T00:17:47.995Z,56.53
2023-05-05T00:18:47.973Z,56.22
2023-05-05T00:19:47.981Z,56.33
2023-05-05T00:20:48.041Z,56.26
2023-05-05T00:21:48.037Z,56.20
2023-05-05T00:22:48.100Z,55.78
2023-05-05T00:23:48.261Z,55.76
2023-05-05T00:24:48.231Z,55.63
2023-05-05T00:25:48.278Z,56.00
2023-05-05T00:26:48.292Z,56.12
2023-05-05T00:27:48.314Z,56.21
2023-05-05T00:28:48.305Z,55.88
2023-05-05T00:29:48.300Z,55.84
2023-05-05T00:30:48.345Z,56.27
2023-05-05T00:31:48.335Z,56.05
2023-05-05T00:32:48.466Z,56.12
2023-05-05T00:33:48.429Z,55.83
2023-05-05T00:34:48.447Z,56.14
2023-05-05T00:35:48.450Z,56.34
2023-05-05T00:36:48.514Z,56.32
2023-05-05T00:37:48.510Z,56.80
2023-05-05T00:38:48.532Z,56.37
2023-05-05T00:39:48.574Z,57.08
2023-05-05T00:40:48.584Z,57.49
2023-05-05T00:41:48.597Z,57.54
2023-05-05T00:42:48.642Z,57.52
2023-05-05T00:43:48.651Z,57.70
2023-05-05T00:44:48.666Z,57.75
2023-05-05T00:45:48.728Z,57.92
2023-05-05T00:46:48.771Z,57.86
2023-05-05T00:47:48.821Z,57.94
2023-05-05T00:48:48.845Z,58.00
2023-05-05T00:49:48.853Z,58.83
2023-05-05T00:50:48.913Z,58.80
2023-05-05T00:51:48.927Z,58.35
2023-05-05T00:52:48.937Z,58.93
2023-05-05T00:53:49.017Z,59.40
2023-05-05T00:54:49.004Z,59.01
2023-05-05T00:55:49.045Z,58.92
2023-05-05T00:56:49.102Z,58.84
2023-05-05T00:57:49.167Z,59.09
2023-05-05T00:58:49.236Z,58.85
2023-05-05T00:59:49.232Z,59.12
2023-05-05T01:00:49.285Z,58.81
2023-05-05T01:01:49.399Z,58.74
2023-05-05T01:02:49.510Z,58.96
2023-05-05T01:03:49.570Z,59.15
2023-05-05T01:04:49.481Z,59.55
2023-05-05T01:05:49.527Z,59.31
2023-05-05T01:06:49.576Z,59.47
2023-05-05T01:07:49.502Z,59.38
2023-05-05T01:08:49.541Z,59.37
2023-05-05T01:09:53.430Z,59.66
2023-05-05T01:10:50.570Z,59.53
2023-05-05T01:11:49.510Z,59.62
2023-05-05T01:12:49.558Z,59.90
2023-05-05T01:13:49.539Z,59.86
2023-05-05T01:14:49.546Z,59.96
2023-05-05T01:15:49.501Z,59.68
2023-05-05T01:16:49.491Z,60.14
2023-05-05T01:17:49.504Z,60.08
2023-05-05T01:18:49.475Z,59.97
2023-05-05T01:19:49.952Z,60.27
2023-05-05T01:20:49.460Z,61.06
2023-05-05T01:21:49.453Z,61.53
2023-05-05T01:22:49.428Z,61.15
2023-05-05T01:23:49.438Z,61.09
2023-05-05T01:24:49.439Z,61.11
2023-05-05T01:25:49.461Z,60.28
2023-05-05T01:26:49.415Z,60.89
2023-05-05T01:27:49.431Z,60.61
2023-05-05T01:28:49.474Z,60.78
2023-05-05T01:29:49.476Z,60.97
2023-05-05T01:30:49.521Z,61.27
2023-05-05T01:31:49.623Z,61.78
2023-05-05T01:32:49.664Z,61.90
2023-05-05T01:33:49.589Z,61.42
2023-05-05T01:34:49.649Z,61.81
2023-05-05T01:35:49.681Z,61.87
2023-05-05T01:36:49.701Z,61.38
2023-05-05T01:37:49.733Z,61.03
2023-05-05T01:38:49.810Z,61.47
2023-05-05T01:39:49.794Z,61.55
2023-05-05T01:40:49.816Z,61.30
2023-05-05T01:41:49.845Z,61.82
2023-05-05T01:42:49.874Z,61.69
2023-05-05T01:43:52.133Z,61.08
2023-05-05T01:44:49.958Z,61.06
2023-05-05T01:45:50.089Z,61.02
2023-05-05T01:46:50.070Z,61.59
2023-05-05T01:47:50.171Z,61.61
2023-05-05T01:48:50.149Z,61.76
2023-05-05T01:49:50.195Z,61.66
2023-05-05T01:50:50.200Z,61.66
2023-05-05T01:51:50.223Z,61.48
2023-05-05T01:52:50.263Z,61.44
2023-05-05T01:53:50.259Z,61.34
2023-05-05T01:54:50.580Z,61.18
2023-05-05T01:55:50.296Z,61.39
2023-05-05T01:56:50.273Z,61.05
2023-05-05T01:57:50.351Z,61.13
2023-05-05T01:58:50.364Z,61.25
2023-05-05T01:59:50.399Z,60.97
2023-05-05T02:00:50.422Z,61.01
2023-05-05T02:01:50.453Z,61.20
2023-05-05T02:02:50.537Z,61.37
2023-05-05T02:03:50.496Z,61.08
2023-05-05T02:04:50.514Z,61.42
2023-05-05T02:05:50.547Z,61.65
2023-05-05T02:06:50.556Z,61.51
2023-05-05T02:07:50.615Z,61.32
2023-05-05T02:08:50.625Z,61.11
2023-05-05T02:09:50.679Z,61.31
2023-05-05T02:10:50.685Z,61.77
2023-05-05T02:11:50.702Z,61.78
2023-05-05T02:12:50.786Z,61.77
2023-05-05T02:13:50.791Z,61.93
2023-05-05T02:14:50.812Z,61.90
2023-05-05T02:15:50.843Z,61.79
2023-05-05T02:16:50.828Z,61.76
2023-05-05T02:17:50.908Z,61.98
2023-05-05T02:18:50.894Z,61.88
2023-05-05T02:19:50.950Z,61.98
2023-05-05T02:20:50.979Z,62.11
2023-05-05T02:21:51.019Z,62.71
2023-05-05T02:22:51.039Z,62.31
2023-05-05T02:23:51.082Z,62.23
2023-05-05T02:24:51.083Z,62.88
2023-05-05T02:25:51.158Z,62.83
2023-05-05T02:26:51.233Z,62.43
2023-05-05T02:28:55.715Z,63.04
2023-05-05T02:29:55.737Z,62.84
2023-05-05T02:30:55.781Z,63.54
2023-05-05T02:31:55.685Z,63.69
2023-05-05T02:32:55.749Z,63.28
2023-05-05T02:33:55.724Z,63.39
2023-05-05T02:34:55.679Z,63.30
2023-05-05T02:35:55.698Z,63.64
2023-05-05T02:36:55.673Z,63.42
2023-05-05T02:37:55.642Z,63.89
2023-05-05T02:38:55.641Z,63.41
2023-05-05T02:39:55.654Z,63.45
2023-05-05T02:40:55.658Z,63.55
2023-05-05T02:41:55.672Z,63.52
2023-05-05T02:42:55.638Z,63.46
2023-05-05T02:43:55.649Z,64.17
2023-05-05T02:44:55.618Z,64.00
2023-05-05T02:45:55.635Z,63.72
2023-05-05T02:46:55.674Z,63.27
2023-05-05T02:47:55.619Z,63.39
2023-05-05T02:48:55.568Z,63.28
2023-05-05T02:49:55.614Z,63.82
2023-05-05T02:50:55.577Z,63.86
2023-05-05T02:51:55.589Z,63.69
2023-05-05T02:52:55.546Z,63.45
2023-05-05T02:53:55.535Z,63.80
2023-05-05T02:54:55.546Z,63.62
2023-05-05T02:55:56.004Z,63.71
2023-05-05T02:56:55.522Z,64.12
2023-05-05T02:57:55.519Z,64.05
2023-05-05T02:58:55.522Z,64.00
2023-05-05T02:59:55.534Z,63.92
2023-05-05T03:00:55.496Z,63.79
2023-05-05T03:01:55.587Z,63.76
2023-05-05T03:02:55.505Z,63.58
2023-05-05T03:03:55.675Z,63.77
2023-05-05T03:04:55.469Z,63.85
2023-05-05T03:05:55.486Z,63.75
2023-05-05T03:06:55.492Z,63.61
2023-05-05T03:07:55.488Z,63.41
2023-05-05T03:08:55.439Z,63.33
2023-05-05T03:09:55.439Z,63.18
2023-05-05T03:10:55.433Z,63.36
2023-05-05T03:11:55.436Z,63.67
2023-05-05T03:12:55.438Z,64.05
2023-05-05T03:13:55.434Z,64.03
2023-05-05T03:14:55.430Z,64.42
2023-05-05T03:15:55.424Z,64.50
2023-05-05T03:16:55.414Z,64.43
2023-05-05T03:17:55.417Z,64.39
2023-05-05T03:18:55.374Z,64.78
2023-05-05T03:19:55.337Z,64.72
2023-05-05T03:20:55.351Z,64.70
2023-05-05T03:21:55.384Z,64.43
2023-05-05T03:22:55.318Z,64.54
2023-05-05T03:23:55.327Z,64.18
2023-05-05T03:24:55.309Z,63.91
2023-05-05T03:25:55.356Z,63.90
2023-05-05T03:26:55.322Z,63.49
2023-05-05T03:27:55.328Z,63.36
2023-05-05T03:28:55.285Z,63.06
2023-05-05T03:29:55.288Z,63.55
2023-05-05T03:30:55.268Z,63.77
2023-05-05T03:31:55.264Z,63.87
2023-05-05T03:32:55.406Z,63.86
2023-05-05T03:33:55.366Z,63.85
2023-05-05T03:34:55.396Z,64.14
2023-05-05T03:35:55.371Z,64.10
2023-05-05T03:36:55.422Z,64.51
2023-05-05T03:37:55.424Z,64.33
2023-05-05T03:38:55.425Z,63.89
2023-05-05T03:39:55.478Z,64.10
2023-05-05T03:40:55.499Z,64.21
2023-05-05T03:41:55.547Z,64.67
2023-05-05T03:42:55.595Z,64.72
2023-05-05T03:43:55.632Z,64.84
2023-05-05T03:44:55.652Z,64.72
2023-05-05T03:45:55.686Z,64.76
2023-05-05T03:46:55.703Z,64.96
2023-05-05T03:47:55.725Z,65.39
2023-05-05T03:48:55.709Z,65.60
2023-05-05T03:49:55.756Z,65.33
2023-05-05T03:50:57.414Z,64.96
2023-05-05T03:51:55.802Z,65.06
2023-05-05T03:52:55.882Z,65.34
2023-05-05T03:53:55.964Z,65.55
2023-05-05T03:54:55.920Z,65.60
2023-05-05T03:55:56.030Z,65.99
2023-05-05T03:56:56.021Z,65.85
2023-05-05T03:57:56.035Z,65.70
2023-05-05T03:58:56.088Z,65.77
2023-05-05T03:59:56.094Z,65.36
2023-05-05T04:00:56.100Z,65.05
2023-05-05T04:01:56.147Z,65.10
2023-05-05T04:02:56.248Z,64.89
2023-05-05T04:03:56.313Z,65.12
2023-05-05T04:04:56.220Z,65.23
2023-05-05T04:05:56.297Z,65.57
2023-05-05T04:06:56.324Z,65.57
2023-05-05T04:07:56.359Z,65.62
2023-05-05T04:08:56.410Z,65.59
2023-05-05T04:09:56.424Z,65.34
2023-05-05T04:10:56.471Z,65.19
2023-05-05T04:11:56.480Z,64.91
2023-05-05T04:12:56.675Z,64.80
2023-05-05T04:13:56.570Z,64.66
2023-05-05T04:14:56.633Z,64.47
2023-05-05T04:15:56.693Z,65.10
2023-05-05T04:16:56.670Z,65.15
2023-05-05T04:17:56.784Z,64.99
2023-05-05T04:18:56.779Z,64.90
2023-05-05T04:19:56.729Z,64.89
2023-05-05T04:20:56.749Z,64.41
2023-05-05T04:21:56.775Z,64.58
2023-05-05T04:22:56.817Z,64.13
2023-05-05T04:23:56.817Z,64.07
2023-05-05T04:24:56.855Z,64.15
2023-05-05T04:25:56.945Z,64.22
2023-05-05T04:26:56.930Z,64.38
2023-05-05T04:27:56.957Z,64.19
2023-05-05T04:28:57.023Z,64.02
2023-05-05T04:29:57.012Z,64.15
2023-05-05T04:30:57.099Z,63.99
2023-05-05T04:31:57.140Z,64.12
2023-05-05T04:32:57.164Z,64.06
2023-05-05T04:33:57.157Z,64.22
2023-05-05T04:34:57.147Z,63.98
2023-05-05T04:35:57.248Z,63.94
2023-05-05T04:36:57.261Z,64.05
2023-05-05T04:37:57.297Z,63.85
2023-05-05T04:38:57.415Z,64.00
2023-05-05T04:39:57.389Z,64.21
2023-05-05T04:40:57.474Z,64.28
2023-05-05T04:41:57.460Z,64.04
2023-05-05T04:42:57.495Z,64.02
2023-05-05T04:43:57.517Z,64.27
2023-05-05T04:44:57.500Z,64.06
2023-05-05T04:45:57.603Z,64.02
2023-05-05T04:46:57.731Z,64.18
2023-05-05T04:47:57.605Z,64.04
2023-05-05T04:48:57.610Z,64.16
2023-05-05T04:49:57.666Z,63.77
2023-05-05T04:50:57.671Z,64.12
2023-05-05T04:51:57.703Z,63.87
2023-05-05T04:52:57.734Z,63.86
2023-05-05T04:53:57.753Z,63.78
2023-05-05T04:54:57.796Z,63.79
2023-05-05T04:55:57.858Z,63.66
2023-05-05T04:56:57.878Z,63.43
2023-05-05T04:57:57.942Z,63.18
2023-05-05T04:58:57.977Z,63.15
2023-05-05T04:59:58.035Z,62.86
2023-05-05T05:00:58.100Z,62.78
2023-05-05T05:01:58.161Z,63.00
2023-05-05T05:02:58.279Z,62.82
2023-05-05T05:03:58.187Z,62.83
2023-05-05T05:04:58.224Z,62.58
2023-05-05T05:05:58.300Z,62.58
2023-05-05T05:06:59.300Z,62.53
2023-05-05T05:07:58.341Z,62.39
2023-05-05T05:08:58.321Z,62.42
2023-05-05T05:09:58.364Z,62.36
2023-05-05T05:10:58.425Z,62.32
2023-05-05T05:11:58.558Z,62.19
2023-05-05T05:12:58.484Z,62.83
2023-05-05T05:13:58.571Z,62.88
2023-05-05T05:14:58.588Z,62.69
2023-05-05T05:15:58.753Z,62.62
2023-05-05T05:16:58.677Z,62.42
2023-05-05T05:17:58.737Z,62.07
2023-05-05T05:19:00.245Z,62.04
2023-05-05T05:19:58.704Z,61.82
2023-05-05T05:20:58.707Z,61.89
2023-05-05T05:21:58.723Z,61.75
2023-05-05T05:22:58.654Z,62.02
2023-05-05T05:23:58.719Z,62.14
2023-05-05T05:24:58.719Z,61.86
2023-05-05T05:25:58.673Z,61.90
2023-05-05T05:26:58.739Z,62.07
2023-05-05T05:28:09.454Z,62.01
2023-05-05T05:28:59.648Z,61.88
2023-05-05T05:29:58.631Z,61.70
2023-05-05T05:30:58.610Z,61.50
2023-05-05T05:31:58.661Z,61.47
2023-05-05T05:32:58.660Z,61.12
2023-05-05T05:33:58.584Z,60.87
2023-05-05T05:34:58.598Z,60.48
2023-05-05T05:35:58.606Z,60.11
2023-05-05T05:36:58.609Z,59.77
2023-05-05T05:37:58.565Z,59.43
2023-05-05T05:38:58.573Z,59.07
2023-05-05T05:39:58.574Z,58.41
2023-05-05T05:40:58.581Z,57.87
2023-05-05T05:41:58.584Z,57.67
2023-05-05T05:42:58.516Z,57.27
2023-05-05T05:43:58.520Z,56.38
2023-05-05T05:44:58.550Z,56.50
2023-05-05T05:45:58.611Z,56.12
2023-05-05T05:46:58.582Z,56.10
2023-05-05T05:47:58.674Z,55.81
2023-05-05T05:48:58.705Z,54.84
2023-05-05T05:49:58.744Z,54.49
2023-05-05T05:50:58.796Z,54.21
2023-05-05T05:51:58.897Z,53.20
2023-05-05T05:52:58.758Z,52.73
2023-05-05T05:53:58.954Z,52.72
2023-05-05T05:54:58.818Z,51.67
2023-05-05T05:55:58.905Z,51.82
2023-05-05T05:56:58.979Z,51.77
2023-05-05T05:57:58.948Z,51.27
2023-05-05T05:58:59.015Z,50.66
2023-05-05T06:00:01.616Z,50.31
2023-05-05T06:00:59.129Z,50.01
2023-05-05T06:01:59.088Z,49.36
2023-05-05T06:02:59.111Z,49.05
2023-05-05T06:03:59.124Z,48.83
2023-05-05T06:04:59.010Z,49.12
2023-05-05T06:05:59.068Z,48.59
2023-05-05T06:06:59.012Z,48.25
2023-05-05T06:07:59.011Z,47.82
2023-05-05T06:08:59.067Z,47.17
2023-05-05T06:10:01.393Z,46.41
2023-05-05T06:11:00.008Z,46.72
2023-05-05T06:11:59.047Z,46.86
2023-05-05T06:12:59.050Z,45.48
2023-05-05T06:13:59.000Z,44.87
2023-05-05T06:14:58.950Z,44.74
2023-05-05T06:15:59.478Z,44.67
2023-05-05T06:16:58.970Z,44.26
2023-05-05T06:17:58.968Z,43.50
2023-05-05T06:18:58.926Z,42.85
2023-05-05T06:19:58.931Z,42.08
2023-05-05T06:20:58.905Z,41.48
2023-05-05T06:21:58.957Z,40.74
2023-05-05T06:22:58.956Z,40.49
2023-05-05T06:23:58.966Z,40.30
2023-05-05T06:24:59.035Z,39.28
2023-05-05T06:25:59.815Z,38.99
2023-05-05T06:27:00.716Z,38.66
2023-05-05T06:27:59.278Z,37.49
2023-05-05T06:28:59.260Z,37.67
2023-05-05T06:29:59.187Z,37.09
2023-05-05T06:30:59.563Z,36.18
2023-05-05T06:31:59.365Z,35.83
2023-05-05T06:32:59.441Z,34.93
2023-05-05T06:33:59.369Z,34.91
2023-05-05T06:34:59.464Z,35.00
2023-05-05T06:35:59.394Z,34.51
2023-05-05T06:36:59.461Z,33.92
2023-05-05T06:37:59.468Z,33.70
2023-05-05T06:38:59.400Z,33.50
2023-05-05T06:39:59.461Z,33.58
2023-05-05T06:40:59.653Z,33.13
2023-05-05T06:41:59.531Z,33.06
2023-05-05T06:42:59.552Z,33.56
2023-05-05T06:43:59.582Z,32.88
2023-05-05T06:44:59.734Z,32.89
2023-05-05T06:45:59.737Z,32.27
2023-05-05T06:46:59.918Z,31.22
2023-05-05T06:47:59.709Z,30.84
2023-05-05T06:48:59.701Z,29.61
2023-05-05T06:49:59.792Z,29.12
2023-05-05T06:50:59.778Z,29.29
2023-05-05T06:51:59.873Z,28.64
2023-05-05T06:52:59.846Z,28.50
2023-05-05T06:53:59.844Z,28.11
2023-05-05T06:54:59.901Z,27.68
2023-05-05T06:55:59.896Z,27.90
2023-05-05T06:56:59.990Z,26.28
2023-05-05T06:58:00.049Z,26.24
2023-05-05T06:59:00.023Z,27.78
2023-05-05T07:00:00.127Z,27.50
2023-05-05T07:01:00.203Z,25.97
2023-05-05T07:02:00.179Z,26.00
2023-05-05T07:03:00.316Z,25.08
2023-05-05T07:04:00.230Z,25.42
2023-05-05T07:05:00.188Z,24.59
2023-05-05T07:06:00.241Z,23.56
2023-05-05T07:07:00.441Z,23.51
2023-05-05T07:08:00.387Z,23.90
2023-05-05T07:09:00.369Z,24.49
2023-05-05T07:10:00.382Z,23.73
2023-05-05T07:11:00.443Z,23.52
2023-05-05T07:12:00.485Z,22.94
2023-05-05T07:13:00.505Z,23.49
2023-05-05T07:14:00.496Z,23.19
2023-05-05T07:15:03.218Z,23.66
2023-05-05T07:16:01.492Z,23.58
2023-05-05T07:17:00.601Z,22.99
2023-05-05T07:18:00.636Z,23.02
2023-05-05T07:19:00.484Z,23.65
2023-05-05T07:20:00.518Z,23.10
2023-05-05T07:21:00.475Z,22.53
2023-05-05T07:22:00.511Z,23.29
2023-05-05T07:23:00.516Z,23.78
2023-05-05T07:24:00.724Z,23.88
2023-05-05T07:25:00.465Z,21.81
2023-05-05T07:26:00.424Z,22.05
2023-05-05T07:27:00.478Z,22.23
2023-05-05T07:28:00.414Z,23.25
2023-05-05T07:29:00.430Z,23.72
2023-05-05T07:30:00.497Z,23.34
2023-05-05T07:31:00.512Z,24.13
2023-05-05T07:32:00.553Z,23.89
2023-05-05T07:33:00.604Z,23.62
2023-05-05T07:34:00.594Z,23.60
2023-05-05T07:35:00.633Z,23.85
2023-05-05T07:36:00.682Z,24.13
2023-05-05T07:37:00.927Z,24.49
2023-05-05T07:38:00.670Z,24.76
2023-05-05T07:39:00.692Z,24.16
2023-05-05T07:40:00.762Z,24.57
2023-05-05T07:41:00.754Z,24.19
2023-05-05T07:42:00.924Z,24.40
2023-05-05T07:43:00.833Z,25.05
2023-05-05T07:44:00.793Z,25.58
2023-05-05T07:45:00.813Z,25.23
2023-05-05T07:46:00.844Z,23.03
2023-05-05T07:47:00.947Z,22.11
2023-05-05T07:48:00.953Z,23.19
2023-05-05T07:49:00.960Z,22.83
2023-05-05T07:50:00.941Z,22.95
2023-05-05T07:51:00.972Z,23.15
2023-05-05T07:52:01.441Z,23.97
2023-05-05T07:53:10.762Z,22.49
2023-05-05T07:54:02.001Z,23.20
2023-05-05T07:55:01.002Z,23.38
2023-05-05T07:56:01.088Z,23.57
2023-05-05T07:57:00.992Z,22.19
2023-05-05T07:58:01.004Z,21.96
2023-05-05T07:59:00.970Z,21.56
2023-05-05T08:00:01.069Z,24.15
2023-05-05T08:01:00.967Z,22.72
2023-05-05T08:02:00.975Z,22.57
2023-05-05T08:03:01.072Z,21.72
2023-05-05T08:04:00.968Z,21.81
2023-05-05T08:05:00.955Z,22.23
2023-05-05T08:06:00.888Z,22.80
2023-05-05T08:07:00.977Z,23.30
2023-05-05T08:08:00.906Z,23.27
2023-05-05T08:09:00.948Z,22.43
2023-05-05T08:10:00.930Z,23.71
2023-05-05T08:11:00.952Z,22.44
2023-05-05T08:12:01.076Z,21.38
2023-05-05T08:13:01.062Z,22.79
2023-05-05T08:14:01.060Z,22.93
2023-05-05T08:15:01.131Z,21.82
2023-05-05T08:16:01.288Z,21.78
2023-05-05T08:17:01.238Z,22.21
2023-05-05T08:18:01.205Z,22.98
2023-05-05T08:19:01.273Z,22.59
2023-05-05T08:20:01.279Z,22.33
2023-05-05T08:21:01.271Z,21.91
2023-05-05T08:22:01.680Z,22.51
2023-05-05T08:23:01.357Z,23.88
2023-05-05T08:24:01.455Z,23.07
2023-05-05T08:25:01.397Z,23.68
2023-05-05T08:26:01.448Z,23.63
2023-05-05T08:27:01.463Z,20.86
2023-05-05T08:28:01.571Z,22.10
2023-05-05T08:29:01.529Z,23.90
2023-05-05T08:30:01.769Z,22.34
2023-05-05T08:31:01.648Z,22.34
2023-05-05T08:32:02.024Z,22.84
2023-05-05T08:33:01.722Z,23.39
2023-05-05T08:34:01.672Z,21.26
2023-05-05T08:35:01.716Z,21.61
2023-05-05T08:36:01.726Z,20.67
2023-05-05T08:37:01.763Z,19.95
2023-05-05T08:38:01.988Z,20.45
2023-05-05T08:39:01.839Z,20.08
2023-05-05T08:40:01.845Z,20.38
2023-05-05T08:41:01.859Z,21.65
2023-05-05T08:42:09.954Z,22.21
2023-05-05T08:43:01.885Z,21.37
2023-05-05T08:44:01.946Z,21.14
2023-05-05T08:45:01.879Z,21.08
2023-05-05T08:46:01.856Z,20.03
2023-05-05T08:47:01.997Z,21.11
2023-05-05T08:48:01.927Z,20.37
2023-05-05T08:49:01.973Z,19.05
2023-05-05T08:50:01.916Z,19.86
2023-05-05T08:51:03.994Z,19.97
2023-05-05T08:52:01.821Z,20.50
2023-05-05T08:53:01.846Z,19.75
2023-05-05T08:54:01.792Z,20.53
2023-05-05T08:55:01.853Z,20.64
2023-05-05T08:56:01.820Z,20.24
2023-05-05T08:57:01.843Z,19.93
2023-05-05T08:58:01.832Z,20.73
2023-05-05T08:59:01.789Z,21.33
2023-05-05T09:00:01.856Z,21.75
2023-05-05T09:01:01.845Z,22.06
2023-05-05T09:02:01.831Z,22.68
2023-05-05T09:03:01.897Z,21.67
2023-05-05T09:04:01.767Z,21.86
2023-05-05T09:05:01.754Z,21.85
2023-05-05T09:06:01.715Z,20.96
2023-05-05T09:07:01.738Z,21.54
2023-05-05T09:08:01.750Z,21.90
2023-05-05T09:09:01.706Z,20.40
2023-05-05T09:10:01.702Z,20.63
2023-05-05T09:11:01.700Z,21.18
2023-05-05T09:12:01.707Z,20.81
2023-05-05T09:13:01.737Z,21.52
2023-05-05T09:14:01.713Z,22.28
2023-05-05T09:15:01.705Z,22.15
2023-05-05T09:16:01.709Z,21.72
2023-05-05T09:17:01.745Z,21.57
2023-05-05T09:18:01.725Z,21.16
2023-05-05T09:19:01.653Z,20.94
2023-05-05T09:20:01.646Z,22.24
2023-05-05T09:21:01.634Z,20.87
2023-05-05T09:22:01.652Z,19.90
2023-05-05T09:23:01.759Z,19.98
2023-05-05T09:24:07.777Z,20.33
2023-05-05T09:25:02.663Z,20.54
2023-05-05T09:26:01.659Z,22.51
2023-05-05T09:27:01.641Z,22.93
2023-05-05T09:28:01.981Z,22.76
2023-05-05T09:29:01.663Z,22.02
2023-05-05T09:31:09.294Z,21.94
2023-05-05T09:32:01.612Z,21.15
2023-05-05T09:33:01.650Z,21.11
2023-05-05T09:34:01.556Z,20.91
2023-05-05T09:35:01.619Z,20.59
2023-05-05T09:36:01.584Z,21.32
2023-05-05T09:37:01.543Z,20.77
2023-05-05T09:38:01.537Z,20.25
2023-05-05T09:39:01.546Z,20.01
2023-05-05T09:40:01.561Z,19.86
2023-05-05T09:41:01.544Z,20.35
2023-05-05T09:42:01.566Z,19.76
2023-05-05T09:43:02.223Z,19.56
2023-05-05T09:44:01.605Z,19.59
2023-05-05T09:45:01.548Z,19.24
2023-05-05T09:46:01.551Z,19.01
2023-05-05T09:47:01.593Z,18.93
2023-05-05T09:48:01.606Z,18.93
2023-05-05T09:49:01.508Z,18.64
2023-05-05T09:50:01.526Z,18.86
2023-05-05T09:51:01.508Z,18.85
2023-05-05T09:52:01.599Z,18.76
2023-05-05T09:53:01.576Z,18.98
2023-05-05T09:54:01.641Z,19.34
2023-05-05T09:55:01.637Z,19.00
2023-05-05T09:56:01.659Z,19.94
2023-05-05T09:57:01.657Z,19.85
2023-05-05T09:58:02.075Z,19.96
2023-05-05T09:59:01.684Z,19.53
2023-05-05T10:00:01.797Z,19.98
2023-05-05T10:01:01.766Z,19.72
2023-05-05T10:02:01.860Z,19.74
2023-05-05T10:03:01.929Z,19.28
2023-05-05T10:04:01.795Z,19.33
2023-05-05T10:05:02.539Z,20.61
2023-05-05T10:06:01.822Z,20.95
2023-05-05T10:07:01.774Z,20.22
2023-05-05T10:08:02.037Z,19.65
2023-05-05T10:09:01.787Z,19.58
2023-05-05T10:10:01.764Z,19.48
2023-05-05T10:11:01.718Z,19.39
2023-05-05T10:12:01.760Z,19.10
2023-05-05T10:13:01.780Z,19.65
2023-05-05T10:14:01.754Z,20.86
2023-05-05T10:15:01.763Z,24.06
2023-05-05T10:16:01.796Z,24.17
2023-05-05T10:17:01.772Z,23.52
2023-05-05T10:18:07.707Z,22.76
2023-05-05T10:19:02.813Z,22.05
2023-05-05T10:20:02.196Z,21.86
2023-05-05T10:21:01.805Z,21.14
2023-05-05T10:22:01.810Z,20.85
2023-05-05T10:23:01.792Z,20.92
2023-05-05T10:24:01.782Z,21.23
2023-05-05T10:25:01.784Z,21.28
2023-05-05T10:26:01.795Z,21.86
2023-05-05T10:27:01.726Z,21.73
2023-05-05T10:28:01.758Z,20.96
2023-05-05T10:29:01.771Z,20.43
2023-05-05T10:30:01.767Z,20.02
2023-05-05T10:31:02.159Z,20.59
2023-05-05T10:32:02.691Z,20.61
2023-05-05T10:33:22.226Z,20.58
2023-05-05T10:34:02.908Z,20.72
2023-05-05T10:35:01.832Z,20.63
2023-05-05T10:36:01.765Z,20.33
2023-05-05T10:37:02.607Z,20.93
2023-05-05T10:38:01.780Z,20.60
2023-05-05T10:39:01.715Z,20.37
2023-05-05T10:40:01.785Z,20.04
2023-05-05T10:41:01.657Z,19.51
2023-05-05T10:42:01.674Z,19.27
2023-05-05T10:43:01.657Z,20.17
2023-05-05T10:44:04.306Z,22.34
2023-05-05T10:45:01.672Z,23.01
2023-05-05T10:46:01.709Z,22.56
2023-05-05T10:47:01.639Z,24.80
2023-05-05T10:48:01.809Z,25.81
2023-05-05T10:49:01.726Z,25.08
2023-05-05T10:50:01.648Z,24.66
2023-05-05T10:51:01.694Z,23.76
2023-05-05T10:52:01.641Z,23.33
2023-05-05T10:53:01.624Z,23.59
2023-05-05T10:54:01.645Z,22.72
2023-05-05T10:55:01.588Z,22.32
2023-05-05T10:56:01.608Z,21.42
2023-05-05T10:57:01.560Z,21.33
2023-05-05T10:58:01.616Z,21.61
2023-05-05T10:59:01.571Z,21.72
2023-05-05T11:00:01.577Z,21.73
2023-05-05T11:01:01.617Z,21.83
2023-05-05T11:02:01.592Z,21.58
2023-05-05T11:03:01.599Z,21.56
2023-05-05T11:04:01.575Z,20.98
2023-05-05T11:05:01.548Z,20.71
2023-05-05T11:06:01.611Z,20.44
2023-05-05T11:07:01.523Z,20.14
2023-05-05T11:08:01.507Z,19.81
2023-05-05T11:09:01.523Z,19.91
2023-05-05T11:10:01.786Z,20.68
2023-05-05T11:11:01.508Z,20.31
2023-05-05T11:12:01.453Z,20.68
2023-05-05T11:13:01.546Z,21.30
2023-05-05T11:14:01.475Z,21.55
2023-05-05T11:15:01.458Z,24.44
2023-05-05T11:16:01.413Z,25.45
2023-05-05T11:17:01.510Z,25.27
2023-05-05T11:18:03.927Z,27.19
2023-05-05T11:19:01.453Z,26.22
2023-05-05T11:20:01.407Z,26.30
2023-05-05T11:21:01.411Z,26.18
2023-05-05T11:22:01.417Z,24.64
2023-05-05T11:23:01.414Z,24.36
2023-05-05T11:24:01.373Z,23.46
2023-05-05T11:25:01.339Z,23.50
2023-05-05T11:26:01.348Z,24.06
2023-05-05T11:27:01.333Z,23.29
2023-05-05T11:28:01.562Z,23.05
2023-05-05T11:29:01.502Z,23.03
2023-05-05T11:30:01.346Z,22.39
2023-05-05T11:31:01.749Z,22.05
2023-05-05T11:32:01.381Z,21.30
2023-05-05T11:33:01.652Z,21.22
2023-05-05T11:34:01.381Z,21.58
2023-05-05T11:35:01.396Z,21.32
2023-05-05T11:36:03.419Z,20.27
2023-05-05T11:37:01.324Z,20.09
2023-05-05T11:38:01.603Z,18.93
2023-05-05T11:39:01.333Z,18.16
2023-05-05T11:40:01.385Z,18.38
2023-05-05T11:41:01.270Z,17.82
2023-05-05T11:42:05.380Z,17.77
2023-05-05T11:43:02.603Z,17.75
2023-05-05T11:44:01.242Z,17.16
2023-05-05T11:45:01.245Z,17.93
2023-05-05T11:46:01.220Z,18.10
2023-05-05T11:47:01.244Z,18.14
2023-05-05T11:48:01.242Z,17.99
2023-05-05T11:49:01.239Z,18.41
2023-05-05T11:50:01.210Z,17.95
2023-05-05T11:51:02.359Z,17.47
2023-05-05T11:52:01.189Z,17.40
2023-05-05T11:53:01.168Z,18.65
2023-05-05T11:54:01.175Z,18.84
2023-05-05T11:55:01.192Z,20.04
2023-05-05T11:56:01.203Z,21.49
2023-05-05T11:57:01.167Z,21.64
2023-05-05T11:58:01.205Z,21.08
2023-05-05T11:59:01.261Z,20.97
2023-05-05T12:00:01.293Z,20.57
2023-05-05T12:01:01.316Z,19.87
2023-05-05T12:02:01.332Z,20.32
2023-05-05T12:03:01.483Z,20.39
2023-05-05T12:04:01.986Z,20.14
2023-05-05T12:05:01.428Z,19.86
2023-05-05T12:06:01.449Z,19.23
2023-05-05T12:07:01.463Z,18.29
2023-05-05T12:08:01.478Z,17.67
2023-05-05T12:09:01.532Z,17.07
2023-05-05T12:10:01.717Z,16.76
2023-05-05T12:11:01.616Z,16.18
2023-05-05T12:12:01.604Z,16.23
2023-05-05T12:13:01.624Z,15.57
2023-05-05T12:14:01.643Z,14.87
2023-05-05T12:15:01.656Z,15.07
2023-05-05T12:16:01.689Z,15.38
2023-05-05T12:17:01.722Z,15.53
2023-05-05T12:18:03.191Z,15.23
2023-05-05T12:19:01.790Z,14.96
2023-05-05T12:20:01.872Z,16.50
2023-05-05T12:21:01.922Z,16.67
2023-05-05T12:22:01.911Z,17.53
2023-05-05T12:23:01.952Z,18.59
2023-05-05T12:24:01.958Z,18.35
2023-05-05T12:25:01.930Z,18.30
2023-05-05T12:26:01.937Z,19.19
2023-05-05T12:27:02.084Z,19.40
2023-05-05T12:28:02.005Z,18.43
2023-05-05T12:29:02.066Z,17.92
2023-05-05T12:30:02.148Z,17.28
2023-05-05T12:31:02.156Z,16.83
2023-05-05T12:32:02.171Z,16.68
2023-05-05T12:33:02.180Z,17.20
2023-05-05T12:34:02.168Z,17.04
2023-05-05T12:35:02.223Z,16.67
2023-05-05T12:36:02.231Z,16.40
2023-05-05T12:37:02.242Z,15.97
2023-05-05T12:38:02.286Z,16.08
2023-05-05T12:39:02.362Z,16.00
2023-05-05T12:40:02.355Z,16.07
2023-05-05T12:41:02.380Z,15.81
2023-05-05T12:42:02.425Z,15.61
2023-05-05T12:43:02.400Z,15.64
2023-05-05T12:44:02.473Z,14.87
2023-05-05T12:45:02.474Z,14.78
2023-05-05T12:46:02.577Z,15.56
2023-05-05T12:47:02.597Z,15.67
2023-05-05T12:48:02.695Z,16.08
2023-05-05T12:49:02.671Z,17.12
2023-05-05T12:50:02.673Z,17.50
2023-05-05T12:51:02.720Z,18.27
2023-05-05T12:52:02.698Z,18.90
2023-05-05T12:53:02.726Z,18.48
2023-05-05T12:54:02.770Z,18.30
2023-05-05T12:55:02.786Z,18.07